Time;durP1;ratioP1;P1;durP2;ratioP2;P2;SDS_P1;SDS_P2;PMS_P1;PMS_P2;Temp;Humidity;BMP_temperature;BMP_pressure;BME280_temperature;BME280_humidity;BME280_pressure;Samples;Min_cycle;Max_cycle;Signal;HPM_P1;HPM_P2
2022/05/02 00:01:09;;;;;;;9.83;8.47;;;;;;;;;;5019240;28;20443;-52
2022/05/02 00:03:37;;;;;;;10.80;8.93;;;;;;;;;;5023644;28;20442;-53
2022/05/02 00:06:07;;;;;;;10.47;8.20;;;;;;;;;;5033175;28;20817;-53
2022/05/02 00:08:36;;;;;;;12.77;9.50;;;;;;;;;;5031291;28;20518;-51
2022/05/02 00:11:15;;;;;;;10.83;8.50;;;;;;;;;;5018782;28;21213;-53
2022/05/02 00:13:43;;;;;;;11.90;9.10;;;;;;;;;;5026557;28;20445;-54
2022/05/02 00:16:39;;;;;;;15.40;10.20;;;;;;;;;;5009357;28;20489;-59
2022/05/02 00:19:07;;;;;;;10.53;8.87;;;;;;;;;;5038088;28;20439;-53
2022/05/02 00:21:37;;;;;;;10.80;8.90;;;;;;;;;;5004238;28;20523;-52
2022/05/02 00:24:04;;;;;;;11.10;9.43;;;;;;;;;;5035707;28;20461;-51
2022/05/02 00:26:41;;;;;;;11.73;9.40;;;;;;;;;;5009166;28;21124;-52
2022/05/02 00:29:08;;;;;;;11.20;10.00;;;;;;;;;;5035388;28;20485;-52
2022/05/02 00:31:35;;;;;;;10.63;8.90;;;;;;;;;;5033072;28;20515;-52
2022/05/02 00:34:02;;;;;;;12.13;9.73;;;;;;;;;;5041504;28;21242;-52
2022/05/02 00:36:41;;;;;;;10.63;9.63;;;;;;;;;;5006010;28;20699;-53
2022/05/02 00:39:12;;;;;;;12.53;8.93;;;;;;;;;;5029293;28;20442;-52
2022/05/02 00:41:38;;;;;;;10.60;9.50;;;;;;;;;;5030306;28;20628;-52
2022/05/02 00:44:05;;;;;;;13.10;8.70;;;;;;;;;;5019488;28;20798;-53
2022/05/02 00:46:31;;;;;;;12.77;10.30;;;;;;;;;;5032008;28;20818;-52
2022/05/02 00:49:41;;;;;;;11.60;9.10;;;;;;;;;;5019557;28;21023;-55
2022/05/02 00:52:18;;;;;;;12.33;9.77;;;;;;;;;;5035066;28;20504;-51
2022/05/02 00:54:52;;;;;;;10.63;9.27;;;;;;;;;;5010241;28;20474;-51
2022/05/02 00:57:18;;;;;;;11.10;9.77;;;;;;;;;;5036101;28;20495;-51
2022/05/02 00:59:49;;;;;;;12.93;9.93;;;;;;;;;;5025829;28;20928;-53
2022/05/02 01:02:19;;;;;;;12.87;9.80;;;;;;;;;;5023431;28;21110;-54
2022/05/02 01:04:46;;;;;;;13.07;9.43;;;;;;;;;;5018138;28;20584;-55
2022/05/02 01:07:20;;;;;;;12.43;10.53;;;;;;;;;;5023936;28;20443;-52
2022/05/02 01:09:53;;;;;;;13.30;10.03;;;;;;;;;;5001815;28;20455;-52
2022/05/02 01:12:20;;;;;;;13.73;9.80;;;;;;;;;;5033467;28;20541;-51
2022/05/02 01:14:48;;;;;;;13.43;9.53;;;;;;;;;;5017143;28;20458;-51
2022/05/02 01:17:14;;;;;;;11.10;9.57;;;;;;;;;;5042464;28;20442;-51
2022/05/02 01:19:57;;;;;;;9.70;8.60;;;;;;;;;;5001517;28;20521;-53
2022/05/02 01:22:23;;;;;;;11.13;9.80;;;;;;;;;;5030422;28;20563;-51
2022/05/02 01:24:49;;;;;;;12.77;10.30;;;;;;;;;;5030748;28;20493;-53
2022/05/02 01:27:19;;;;;;;12.07;10.70;;;;;;;;;;5039190;28;20440;-51
2022/05/02 01:29:45;;;;;;;12.20;10.90;;;;;;;;;;5025638;28;20797;-51
2022/05/02 01:32:13;;;;;;;11.73;10.53;;;;;;;;;;5039332;28;20986;-52
2022/05/02 01:34:40;;;;;;;11.47;10.27;;;;;;;;;;5025890;28;20456;-51
2022/05/02 01:37:07;;;;;;;11.77;9.53;;;;;;;;;;5028850;28;20814;-52
2022/05/02 01:39:32;;;;;;;16.90;11.40;;;;;;;;;;5023428;28;20561;-52
2022/05/02 01:42:02;;;;;;;12.50;9.33;;;;;;;;;;5028785;28;23779;-53
2022/05/02 01:44:28;;;;;;;15.00;11.10;;;;;;;;;;5027711;28;23292;-52
2022/05/02 01:47:07;;;;;;;9.40;8.50;;;;;;;;;;5028116;28;20434;-52
2022/05/02 01:49:36;;;;;;;11.33;9.90;;;;;;;;;;5026649;28;20500;-52
2022/05/02 01:52:02;;;;;;;14.93;9.73;;;;;;;;;;5015299;28;20422;-52
2022/05/02 01:55:13;;;;;;;11.83;10.13;;;;;;;;;;5017324;28;20511;-51
2022/05/02 01:57:43;;;;;;;9.83;8.67;;;;;;;;;;5032258;28;20532;-51
2022/05/02 02:00:43;;;;;;;12.40;10.23;;;;;;;;;;5035051;28;20433;-52
2022/05/02 02:03:20;;;;;;;13.17;9.73;;;;;;;;;;5044903;28;20437;-54
2022/05/02 02:05:58;;;;;;;13.00;10.00;;;;;;;;;;5012545;28;20494;-52
2022/05/02 02:08:29;;;;;;;16.47;10.40;;;;;;;;;;5029005;28;20451;-52
2022/05/02 02:11:32;;;;;;;13.40;10.90;;;;;;;;;;5019572;28;20515;-52
2022/05/02 02:14:04;;;;;;;13.30;10.80;;;;;;;;;;5035076;28;20429;-52
2022/05/02 02:16:30;;;;;;;12.03;9.97;;;;;;;;;;5016193;28;20550;-51
2022/05/02 02:18:56;;;;;;;13.47;10.57;;;;;;;;;;5037645;28;20529;-51
2022/05/02 02:21:22;;;;;;;14.37;10.73;;;;;;;;;;5035358;28;20184;-54
2022/05/02 02:23:51;;;;;;;14.03;10.67;;;;;;;;;;5040012;28;20434;-50
2022/05/02 02:26:17;;;;;;;14.37;11.00;;;;;;;;;;4992669;28;20680;-51
2022/05/02 02:28:43;;;;;;;16.13;11.60;;;;;;;;;;5037714;28;22519;-51
2022/05/02 02:31:17;;;;;;;14.93;11.03;;;;;;;;;;4999947;28;20769;-51
2022/05/02 02:33:43;;;;;;;12.47;11.20;;;;;;;;;;5030151;28;20442;-53
2022/05/02 02:36:12;;;;;;;12.73;11.40;;;;;;;;;;5034713;28;20950;-52
2022/05/02 02:38:38;;;;;;;10.57;9.37;;;;;;;;;;5025528;28;20431;-53
2022/05/02 02:41:11;;;;;;;11.67;10.50;;;;;;;;;;5020897;28;20672;-53
2022/05/02 02:43:37;;;;;;;11.57;10.13;;;;;;;;;;5033874;28;20464;-54
2022/05/02 02:46:08;;;;;;;12.70;10.90;;;;;;;;;;5023680;28;20517;-53
2022/05/02 02:48:35;;;;;;;11.97;9.90;;;;;;;;;;5031649;28;21077;-53
2022/05/02 02:51:01;;;;;;;11.43;10.03;;;;;;;;;;5015106;28;20437;-52
2022/05/02 02:53:31;;;;;;;13.77;9.70;;;;;;;;;;5048836;28;20441;-54
2022/05/02 02:55:57;;;;;;;12.37;9.70;;;;;;;;;;5025090;28;20460;-53
2022/05/02 02:58:26;;;;;;;14.70;10.90;;;;;;;;;;5023247;28;20794;-54
2022/05/02 03:03:56;;;;;;;13.17;11.00;;;;;;;;;;5003694;28;21653;-55
2022/05/02 03:06:23;;;;;;;12.37;10.87;;;;;;;;;;5029006;28;20460;-51
2022/05/02 03:08:52;;;;;;;15.20;10.53;;;;;;;;;;5027142;28;20520;-54
2022/05/02 03:11:22;;;;;;;11.53;10.17;;;;;;;;;;5025090;28;20627;-53
2022/05/02 03:13:49;;;;;;;12.50;10.80;;;;;;;;;;5025869;28;20521;-51
2022/05/02 03:16:30;;;;;;;12.27;10.13;;;;;;;;;;5028594;28;20439;-52
2022/05/02 03:18:56;;;;;;;12.23;10.43;;;;;;;;;;5047286;28;20460;-52
2022/05/02 03:21:36;;;;;;;12.47;9.30;;;;;;;;;;5016757;28;20434;-51
2022/05/02 03:24:06;;;;;;;12.43;10.87;;;;;;;;;;5026781;28;21214;-53
2022/05/02 03:26:32;;;;;;;12.30;10.47;;;;;;;;;;5022853;28;20455;-53
2022/05/02 03:28:58;;;;;;;13.63;10.77;;;;;;;;;;5029112;28;20594;-53
2022/05/02 03:34:28;;;;;;;13.40;9.63;;;;;;;;;;5002554;28;20214;-53
2022/05/02 03:36:54;;;;;;;14.00;11.57;;;;;;;;;;5018731;28;20431;-53
2022/05/02 03:39:20;;;;;;;14.37;10.60;;;;;;;;;;5039718;28;20434;-52
2022/05/02 03:41:46;;;;;;;14.70;11.33;;;;;;;;;;5027966;28;21048;-53
2022/05/02 03:44:12;;;;;;;14.80;11.70;;;;;;;;;;5042941;28;20489;-50
2022/05/02 03:46:38;;;;;;;12.10;10.60;;;;;;;;;;5030015;28;20911;-50
2022/05/02 03:49:04;;;;;;;12.50;10.67;;;;;;;;;;5029196;28;20801;-51
2022/05/02 03:51:34;;;;;;;13.10;10.50;;;;;;;;;;5010308;28;20434;-53
2022/05/02 03:54:00;;;;;;;12.10;10.70;;;;;;;;;;5039939;28;21243;-52
2022/05/02 03:56:26;;;;;;;11.87;10.30;;;;;;;;;;5031427;28;20443;-53
2022/05/02 03:58:52;;;;;;;11.50;10.13;;;;;;;;;;5035043;28;20644;-52
2022/05/02 04:01:18;;;;;;;13.87;11.47;;;;;;;;;;5029493;28;20974;-53
2022/05/02 04:04:04;;;;;;;13.50;10.60;;;;;;;;;;5000630;28;20450;-54
2022/05/02 04:07:10;;;;;;;12.40;9.97;;;;;;;;;;5022034;28;20955;-52
2022/05/02 04:09:40;;;;;;;13.43;10.97;;;;;;;;;;5033715;28;21042;-52
2022/05/02 04:12:11;;;;;;;12.83;10.67;;;;;;;;;;5028771;28;20867;-54
2022/05/02 04:14:37;;;;;;;14.20;11.70;;;;;;;;;;5022228;28;20437;-54
2022/05/02 04:17:20;;;;;;;14.30;11.80;;;;;;;;;;5022366;28;20451;-54
2022/05/02 04:19:50;;;;;;;10.97;9.87;;;;;;;;;;5025637;28;20454;-52
2022/05/02 04:22:20;;;;;;;12.77;11.30;;;;;;;;;;5001361;28;20478;-52
2022/05/02 04:24:47;;;;;;;13.40;12.00;;;;;;;;;;5037917;28;20478;-53
2022/05/02 04:27:13;;;;;;;14.43;10.30;;;;;;;;;;5022177;28;20463;-54
2022/05/02 04:30:03;;;;;;;13.50;10.53;;;;;;;;;;5008370;28;20438;-53
2022/05/02 04:32:29;;;;;;;12.50;11.20;;;;;;;;;;5029809;28;20460;-53
2022/05/02 04:35:29;;;;;;;13.10;11.30;;;;;;;;;;5020322;28;20438;-54
2022/05/02 04:37:56;;;;;;;12.00;10.80;;;;;;;;;;5036973;28;20434;-53
2022/05/02 04:40:22;;;;;;;15.63;12.97;;;;;;;;;;5026858;28;20489;-54
2022/05/02 04:42:48;;;;;;;14.23;11.53;;;;;;;;;;5016737;28;20942;-54
2022/05/02 04:45:14;;;;;;;13.97;11.77;;;;;;;;;;5012618;28;21060;-52
2022/05/02 04:47:40;;;;;;;13.10;10.80;;;;;;;;;;5022243;28;20468;-52
2022/05/02 04:50:07;;;;;;;11.60;10.50;;;;;;;;;;4994738;28;20542;-50
2022/05/02 04:52:33;;;;;;;13.70;11.90;;;;;;;;;;5024360;28;20517;-53
2022/05/02 04:54:59;;;;;;;13.37;10.87;;;;;;;;;;5020560;28;21094;-53
2022/05/02 04:57:25;;;;;;;13.37;11.83;;;;;;;;;;5017388;28;20928;-50
2022/05/02 05:00:05;;;;;;;13.27;11.10;;;;;;;;;;5005326;28;20803;-53
2022/05/02 05:02:34;;;;;;;14.07;10.33;;;;;;;;;;5021520;28;20426;-53
2022/05/02 05:05:00;;;;;;;13.87;11.00;;;;;;;;;;5008518;28;20482;-53
2022/05/02 05:07:27;;;;;;;14.30;11.60;;;;;;;;;;5013191;28;20446;-53
2022/05/02 05:10:05;;;;;;;13.70;10.77;;;;;;;;;;4998707;28;20840;-51
2022/05/02 05:12:52;;;;;;;12.57;11.37;;;;;;;;;;5022211;28;20928;-53
2022/05/02 05:18:09;;;;;;;12.50;11.20;;;;;;;;;;5025906;28;20450;-51
2022/05/02 05:20:53;;;;;;;13.20;10.93;;;;;;;;;;5007121;28;20435;-52
2022/05/02 05:23:22;;;;;;;15.73;12.50;;;;;;;;;;5024466;28;20446;-53
2022/05/02 05:26:08;;;;;;;13.80;12.20;;;;;;;;;;5025948;28;20475;-52
2022/05/02 05:28:41;;;;;;;15.10;12.73;;;;;;;;;;5025778;28;21012;-52
2022/05/02 05:31:23;;;;;;;15.20;11.63;;;;;;;;;;5000957;28;20453;-52
2022/05/02 05:34:08;;;;;;;16.23;13.80;;;;;;;;;;5021297;28;20435;-54
2022/05/02 05:36:53;;;;;;;16.80;12.60;;;;;;;;;;5021674;28;20430;-52
2022/05/02 05:39:24;;;;;;;13.77;12.37;;;;;;;;;;5014246;28;20466;-51
2022/05/02 05:41:55;;;;;;;18.73;12.77;;;;;;;;;;5045276;28;20500;-51
2022/05/02 05:47:31;;;;;;;13.10;11.70;;;;;;;;;;5004788;28;20442;-52
2022/05/02 05:50:35;;;;;;;12.77;11.47;;;;;;;;;;5023768;28;20512;-53
2022/05/02 05:53:10;;;;;;;13.90;12.47;;;;;;;;;;5029116;28;20795;-54
2022/05/02 05:55:55;;;;;;;15.77;12.83;;;;;;;;;;5027991;28;21296;-53
2022/05/02 05:58:29;;;;;;;20.07;14.47;;;;;;;;;;5023563;28;20582;-52
2022/05/02 06:00:58;;;;;;;16.70;13.97;;;;;;;;;;5002675;28;20608;-51
2022/05/02 06:03:25;;;;;;;19.67;14.50;;;;;;;;;;5002871;28;20784;-52
2022/05/02 06:05:51;;;;;;;22.23;15.63;;;;;;;;;;5024495;28;20478;-51
2022/05/02 06:08:19;;;;;;;16.13;12.33;;;;;;;;;;5017762;28;20438;-52
2022/05/02 06:10:45;;;;;;;18.60;15.20;;;;;;;;;;5023000;28;20608;-54
2022/05/02 06:13:11;;;;;;;17.10;13.50;;;;;;;;;;5019745;28;20453;-53
2022/05/02 06:18:28;;;;;;;16.87;13.50;;;;;;;;;;4986314;28;20994;-52
2022/05/02 06:20:54;;;;;;;17.30;15.30;;;;;;;;;;5027360;28;20449;-52
2022/05/02 06:23:20;;;;;;;16.00;14.27;;;;;;;;;;5001565;28;20943;-51
2022/05/02 06:25:49;;;;;;;17.40;13.53;;;;;;;;;;5024122;28;20482;-56
2022/05/02 06:28:15;;;;;;;17.40;15.47;;;;;;;;;;5014297;28;20828;-53
2022/05/02 06:30:41;;;;;;;16.83;15.03;;;;;;;;;;5028350;28;20526;-53
2022/05/02 06:33:25;;;;;;;16.93;15.10;;;;;;;;;;5016566;28;20446;-51
2022/05/02 06:36:06;;;;;;;16.07;14.37;;;;;;;;;;5031627;28;20585;-53
2022/05/02 06:38:40;;;;;;;16.47;14.00;;;;;;;;;;5033071;28;20485;-53
2022/05/02 06:41:15;;;;;;;17.73;15.37;;;;;;;;;;5036383;28;20511;-53
2022/05/02 06:43:44;;;;;;;17.50;14.67;;;;;;;;;;5025700;28;20426;-53
2022/05/02 06:46:15;;;;;;;17.67;14.90;;;;;;;;;;5036145;28;20711;-53
2022/05/02 06:48:49;;;;;;;16.97;14.77;;;;;;;;;;4996388;28;20981;-52
2022/05/02 06:51:34;;;;;;;20.97;15.47;;;;;;;;;;5035113;28;20433;-52
2022/05/02 06:54:03;;;;;;;16.53;13.87;;;;;;;;;;5033200;28;20426;-53
2022/05/02 06:56:29;;;;;;;18.40;15.10;;;;;;;;;;5042683;28;20495;-52
2022/05/02 06:59:07;;;;;;;18.23;14.87;;;;;;;;;;5017614;28;20867;-52
2022/05/02 07:01:39;;;;;;;19.57;14.40;;;;;;;;;;5036448;28;20814;-54
2022/05/02 07:04:09;;;;;;;20.30;14.30;;;;;;;;;;5018820;28;20997;-52
2022/05/02 07:06:58;;;;;;;16.67;13.80;;;;;;;;;;5045665;28;20561;-52
2022/05/02 07:09:30;;;;;;;17.60;14.97;;;;;;;;;;5034509;28;20532;-53
2022/05/02 07:12:00;;;;;;;15.67;13.97;;;;;;;;;;5011170;28;21185;-52
2022/05/02 07:14:35;;;;;;;19.80;14.80;;;;;;;;;;5034041;28;20468;-52
2022/05/02 07:17:38;;;;;;;17.63;15.23;;;;;;;;;;5042815;28;20441;-55
2022/05/02 07:20:18;;;;;;;19.17;15.70;;;;;;;;;;5033441;28;20442;-52
2022/05/02 07:25:53;;;;;;;19.80;15.27;;;;;;;;;;5037892;28;20676;-52
2022/05/02 07:28:20;;;;;;;22.40;14.90;;;;;;;;;;5027933;28;20473;-52
2022/05/02 07:30:46;;;;;;;18.63;14.90;;;;;;;;;;5039793;28;20475;-53
2022/05/02 07:33:13;;;;;;;20.53;15.97;;;;;;;;;;5018045;28;20457;-53
2022/05/02 07:35:39;;;;;;;19.70;15.00;;;;;;;;;;5039184;28;20434;-54
2022/05/02 07:38:28;;;;;;;17.97;15.37;;;;;;;;;;5007906;28;20206;-51
2022/05/02 07:43:41;;;;;;;16.87;14.87;;;;;;;;;;5015030;28;21029;-53
2022/05/02 07:46:16;;;;;;;16.53;14.83;;;;;;;;;;5021818;28;20474;-53
2022/05/02 07:48:43;;;;;;;21.50;16.00;;;;;;;;;;5030670;28;20430;-54
2022/05/02 07:51:09;;;;;;;16.77;14.80;;;;;;;;;;5047299;28;20460;-54
2022/05/02 07:53:37;;;;;;;19.10;16.03;;;;;;;;;;5026814;28;22223;-53
2022/05/02 07:56:04;;;;;;;19.20;16.07;;;;;;;;;;5044515;28;20440;-50
2022/05/02 07:58:55;;;;;;;22.70;18.00;;;;;;;;;;5029977;28;20443;-50
2022/05/02 08:01:22;;;;;;;19.40;16.20;;;;;;;;;;5035682;28;20526;-52
2022/05/02 08:03:48;;;;;;;18.87;16.73;;;;;;;;;;5017876;28;20434;-52
2022/05/02 08:06:18;;;;;;;20.33;16.73;;;;;;;;;;5042756;28;20485;-53
2022/05/02 08:08:55;;;;;;;18.13;15.80;;;;;;;;;;5023398;28;20455;-54
2022/05/02 08:11:27;;;;;;;19.03;16.27;;;;;;;;;;5038233;28;20433;-53
2022/05/02 08:14:06;;;;;;;19.80;15.03;;;;;;;;;;5038241;28;20434;-52
2022/05/02 08:16:33;;;;;;;19.67;13.90;;;;;;;;;;5042497;28;20526;-53
2022/05/02 08:19:21;;;;;;;17.60;13.60;;;;;;;;;;5018674;28;20896;-54
2022/05/02 08:28:00;;;;;;;16.17;13.83;;;;;;;;;;5045149;28;20487;-51
2022/05/02 08:30:27;;;;;;;16.40;13.33;;;;;;;;;;5039142;28;20529;-51
2022/05/02 08:33:01;;;;;;;13.83;12.40;;;;;;;;;;5036108;28;21034;-51
2022/05/02 08:35:30;;;;;;;14.70;12.33;;;;;;;;;;5038294;28;20802;-52
2022/05/02 08:41:12;;;;;;;16.47;12.90;;;;;;;;;;5029718;28;20449;-50
2022/05/02 08:44:00;;;;;;;15.80;11.67;;;;;;;;;;5032768;28;20449;-53
2022/05/02 08:46:33;;;;;;;13.33;11.90;;;;;;;;;;5037756;28;20451;-53
2022/05/02 08:52:12;;;;;;;12.13;10.90;;;;;;;;;;5026604;28;20446;-54
2022/05/02 08:54:52;;;;;;;12.10;10.90;;;;;;;;;;5019928;28;20451;-61
2022/05/02 08:57:53;;;;;;;13.30;10.73;;;;;;;;;;5034472;28;20884;-52
2022/05/02 09:00:36;;;;;;;13.33;11.93;;;;;;;;;;5030483;28;20441;-53
2022/05/02 09:03:24;;;;;;;12.83;11.47;;;;;;;;;;5035896;28;20441;-52
2022/05/02 09:06:10;;;;;;;12.93;11.53;;;;;;;;;;5033417;28;20486;-52
2022/05/02 09:08:54;;;;;;;12.20;10.97;;;;;;;;;;5028248;28;20439;-54
2022/05/02 09:11:33;;;;;;;10.30;9.30;;;;;;;;;;5035208;28;20496;-53
2022/05/02 09:14:17;;;;;;;12.13;9.57;;;;;;;;;;5018422;28;23545;-53
2022/05/02 09:16:54;;;;;;;11.43;10.20;;;;;;;;;;5042915;28;20453;-53
2022/05/02 09:19:33;;;;;;;15.30;11.47;;;;;;;;;;5018891;28;20446;-53
2022/05/02 09:22:21;;;;;;;11.07;9.90;;;;;;;;;;5034043;28;20430;-54
2022/05/02 09:24:56;;;;;;;11.90;10.70;;;;;;;;;;5024863;28;20482;-52
2022/05/02 09:27:22;;;;;;;12.27;10.80;;;;;;;;;;5038662;28;20484;-53
2022/05/02 09:30:07;;;;;;;13.30;11.90;;;;;;;;;;5000319;28;20462;-51
2022/05/02 09:32:52;;;;;;;13.33;11.23;;;;;;;;;;5037790;28;20446;-53
2022/05/02 09:35:19;;;;;;;14.40;11.63;;;;;;;;;;5023916;28;20448;-54
2022/05/02 09:40:50;;;;;;;12.97;11.27;;;;;;;;;;5019100;28;20957;-54
2022/05/02 09:51:53;;;;;;;14.27;12.80;;;;;;;;;;5035654;28;20994;-53
2022/05/02 09:58:00;;;;;;;10.57;9.13;;;;;;;;;;5036027;28;21028;-53
2022/05/02 10:01:06;;;;;;;12.77;10.10;;;;;;;;;;5025735;28;20454;-53
2022/05/02 10:03:39;;;;;;;11.60;10.10;;;;;;;;;;5004978;28;20454;-54
2022/05/02 10:06:14;;;;;;;11.10;10.03;;;;;;;;;;5033210;28;20474;-51
2022/05/02 10:08:56;;;;;;;10.10;8.77;;;;;;;;;;5041481;28;20466;-51
2022/05/02 10:11:46;;;;;;;9.83;8.83;;;;;;;;;;5033544;28;20466;-52
2022/05/02 10:14:15;;;;;;;10.80;9.70;;;;;;;;;;5011823;28;20978;-53
2022/05/02 10:16:42;;;;;;;8.83;7.93;;;;;;;;;;5010830;28;20454;-51
2022/05/02 10:19:10;;;;;;;10.00;8.83;;;;;;;;;;5036846;28;20427;-52
2022/05/02 10:21:48;;;;;;;12.00;10.20;;;;;;;;;;5021983;28;20453;-53
2022/05/02 10:24:14;;;;;;;12.63;9.53;;;;;;;;;;5036040;28;20430;-52
2022/05/02 10:26:45;;;;;;;9.43;8.47;;;;;;;;;;5004322;28;20454;-53
2022/05/02 10:29:37;;;;;;;9.67;8.77;;;;;;;;;;5036193;28;20184;-54
2022/05/02 10:32:08;;;;;;;10.07;9.00;;;;;;;;;;5016343;28;20442;-53
2022/05/02 10:34:36;;;;;;;9.13;7.93;;;;;;;;;;5033017;28;20531;-53
2022/05/02 10:37:05;;;;;;;9.67;8.83;;;;;;;;;;5001328;28;20477;-53
2022/05/02 10:39:45;;;;;;;9.00;8.10;;;;;;;;;;5038017;28;21019;-52
2022/05/02 10:42:11;;;;;;;9.93;8.93;;;;;;;;;;5035155;28;20434;-54
2022/05/02 10:44:57;;;;;;;10.83;9.57;;;;;;;;;;5049253;28;20481;-53
2022/05/02 10:47:25;;;;;;;9.93;8.93;;;;;;;;;;5028529;28;20427;-53
2022/05/02 10:50:10;;;;;;;10.83;9.07;;;;;;;;;;5037876;28;20418;-53
2022/05/02 10:52:41;;;;;;;10.00;9.00;;;;;;;;;;5030032;28;20430;-55
2022/05/02 10:55:40;;;;;;;8.60;7.70;;;;;;;;;;5030683;28;20454;-54
2022/05/02 10:58:28;;;;;;;10.80;7.73;;;;;;;;;;5024592;28;21021;-54
2022/05/02 11:01:01;;;;;;;8.03;7.23;;;;;;;;;;5036282;28;20426;-53
2022/05/02 11:03:57;;;;;;;7.77;7.10;;;;;;;;;;5012113;28;20537;-53
2022/05/02 11:06:27;;;;;;;8.37;7.57;;;;;;;;;;5031676;28;20935;-52
2022/05/02 11:08:59;;;;;;;7.60;6.27;;;;;;;;;;5012826;28;21126;-54
2022/05/02 11:11:34;;;;;;;7.40;6.70;;;;;;;;;;5026638;28;20440;-52
2022/05/02 11:14:26;;;;;;;8.63;6.77;;;;;;;;;;5034900;28;20429;-53
2022/05/02 11:16:56;;;;;;;8.67;7.77;;;;;;;;;;5029236;28;20438;-51
2022/05/02 11:22:22;;;;;;;7.17;6.47;;;;;;;;;;5033827;28;20583;-51
2022/05/02 11:25:17;;;;;;;6.97;6.33;;;;;;;;;;5028482;28;20481;-55
2022/05/02 11:27:46;;;;;;;7.40;6.60;;;;;;;;;;5038295;28;20442;-51
2022/05/02 11:30:12;;;;;;;6.93;6.23;;;;;;;;;;5015999;28;20485;-51
2022/05/02 11:33:01;;;;;;;7.40;6.70;;;;;;;;;;5038230;28;20445;-51
2022/05/02 11:35:31;;;;;;;7.23;6.53;;;;;;;;;;5005413;28;20450;-51
2022/05/02 11:37:57;;;;;;;7.10;6.50;;;;;;;;;;5036682;28;20467;-52
2022/05/02 11:40:27;;;;;;;6.77;6.13;;;;;;;;;;4990010;28;20623;-51
2022/05/02 11:42:53;;;;;;;6.60;5.93;;;;;;;;;;5036233;28;20782;-51
2022/05/02 11:45:19;;;;;;;8.40;7.67;;;;;;;;;;5001901;28;21408;-52
2022/05/02 11:47:48;;;;;;;7.87;7.10;;;;;;;;;;5039242;28;20441;-53
2022/05/02 11:50:18;;;;;;;8.67;7.87;;;;;;;;;;5033805;28;20438;-52
2022/05/02 11:52:44;;;;;;;9.27;8.37;;;;;;;;;;5031314;28;20517;-52
2022/05/02 11:55:10;;;;;;;8.47;7.63;;;;;;;;;;4968763;28;21438;-52
2022/05/02 11:57:42;;;;;;;10.53;8.10;;;;;;;;;;5026519;28;20430;-53
2022/05/02 12:00:11;;;;;;;9.63;7.97;;;;;;;;;;5032256;28;21154;-52
2022/05/02 12:02:41;;;;;;;7.30;6.60;;;;;;;;;;5008708;28;20443;-54
2022/05/02 12:05:16;;;;;;;8.93;8.03;;;;;;;;;;5020889;28;20488;-53
2022/05/02 12:07:42;;;;;;;7.50;6.80;;;;;;;;;;4997722;28;20668;-52
2022/05/02 12:10:09;;;;;;;7.47;6.77;;;;;;;;;;5028067;28;21218;-51
2022/05/02 12:12:36;;;;;;;9.07;8.27;;;;;;;;;;4980384;28;21779;-54
2022/05/02 12:15:03;;;;;;;7.70;7.00;;;;;;;;;;5050234;28;20444;-51
2022/05/02 12:17:29;;;;;;;9.20;8.40;;;;;;;;;;5014044;28;20438;-52
2022/05/02 12:19:55;;;;;;;7.23;6.60;;;;;;;;;;5033114;28;20445;-52
2022/05/02 12:22:22;;;;;;;8.30;7.60;;;;;;;;;;5025070;28;24587;-53
2022/05/02 12:24:48;;;;;;;8.80;7.90;;;;;;;;;;5023765;28;20214;-53
2022/05/02 12:27:14;;;;;;;7.70;6.90;;;;;;;;;;5014997;28;20442;-52
2022/05/02 12:29:42;;;;;;;8.90;7.00;;;;;;;;;;5020456;28;20453;-52
2022/05/02 12:32:08;;;;;;;7.33;6.63;;;;;;;;;;5032174;28;20430;-53
2022/05/02 12:34:35;;;;;;;6.93;6.30;;;;;;;;;;5006834;28;20426;-52
2022/05/02 12:37:01;;;;;;;8.20;6.93;;;;;;;;;;5035901;28;20439;-53
2022/05/02 12:39:28;;;;;;;9.07;8.03;;;;;;;;;;5006020;28;20489;-52
2022/05/02 12:41:55;;;;;;;6.70;6.10;;;;;;;;;;5035245;28;20446;-52
2022/05/02 12:44:52;;;;;;;7.17;6.47;;;;;;;;;;5022565;28;20437;-52
2022/05/02 12:47:20;;;;;;;6.40;5.80;;;;;;;;;;5032314;28;20434;-53
2022/05/02 12:50:12;;;;;;;6.40;5.80;;;;;;;;;;5016817;28;22466;-53
2022/05/02 12:52:48;;;;;;;6.63;5.97;;;;;;;;;;5038884;28;20518;-53
2022/05/02 12:55:14;;;;;;;7.60;6.30;;;;;;;;;;5031995;28;20429;-53
2022/05/02 13:00:30;;;;;;;6.83;6.23;;;;;;;;;;5014466;28;20465;-52
2022/05/02 13:02:56;;;;;;;6.80;6.10;;;;;;;;;;5027088;28;20440;-52
2022/05/02 13:05:23;;;;;;;6.80;6.20;;;;;;;;;;5006492;28;20467;-53
2022/05/02 13:07:50;;;;;;;7.07;6.40;;;;;;;;;;5018278;28;20449;-53
2022/05/02 13:10:26;;;;;;;9.23;6.70;;;;;;;;;;5006289;28;20465;-52
2022/05/02 13:13:07;;;;;;;6.00;5.50;;;;;;;;;;5022985;28;20934;-50
2022/05/02 13:15:34;;;;;;;7.10;6.40;;;;;;;;;;5024114;28;20504;-53
2022/05/02 13:18:01;;;;;;;7.03;6.40;;;;;;;;;;5019735;28;20434;-53
2022/05/02 13:20:28;;;;;;;9.47;6.37;;;;;;;;;;5015491;28;20478;-52
2022/05/02 13:22:58;;;;;;;6.17;5.60;;;;;;;;;;5031162;28;20959;-53
2022/05/02 13:25:45;;;;;;;6.67;6.07;;;;;;;;;;5005223;28;20812;-53
2022/05/02 13:28:36;;;;;;;6.07;5.47;;;;;;;;;;4983316;28;20446;-53
2022/05/02 13:31:16;;;;;;;6.17;5.57;;;;;;;;;;5011432;28;20925;-51
2022/05/02 13:33:44;;;;;;;5.90;5.40;;;;;;;;;;4994615;28;20442;-51
2022/05/02 13:36:10;;;;;;;5.70;4.40;;;;;;;;;;5021623;28;20555;-52
2022/05/02 13:38:57;;;;;;;5.40;4.87;;;;;;;;;;5005545;28;20451;-52
2022/05/02 13:41:32;;;;;;;3.87;3.53;;;;;;;;;;5008236;28;20434;-52
2022/05/02 13:44:16;;;;;;;4.50;4.10;;;;;;;;;;5000020;28;20454;-53
2022/05/02 13:46:59;;;;;;;7.17;6.40;;;;;;;;;;5030692;28;20980;-53
2022/05/02 13:49:31;;;;;;;5.90;4.83;;;;;;;;;;5025658;28;20479;-51
2022/05/02 13:52:23;;;;;;;5.37;4.87;;;;;;;;;;5022059;28;20430;-52
2022/05/02 13:55:15;;;;;;;5.73;4.43;;;;;;;;;;5018065;28;20446;-52
2022/05/02 14:03:30;;;;;;;7.83;7.03;;;;;;;;;;5026446;28;20430;-52
2022/05/02 14:05:59;;;;;;;5.73;5.13;;;;;;;;;;5041638;28;20997;-51
2022/05/02 14:08:54;;;;;;;8.80;5.17;;;;;;;;;;5014536;28;21064;-53
2022/05/02 14:11:23;;;;;;;14.27;12.17;;;;;;;;;;5030590;28;20468;-53
2022/05/02 14:14:03;;;;;;;6.80;6.13;;;;;;;;;;5011286;28;20441;-52
2022/05/02 14:16:31;;;;;;;5.90;4.80;;;;;;;;;;5035218;28;20434;-51
2022/05/02 14:19:00;;;;;;;4.80;4.40;;;;;;;;;;5023708;28;20434;-51
2022/05/02 14:21:30;;;;;;;5.10;4.70;;;;;;;;;;5028868;28;20428;-52
2022/05/02 14:23:59;;;;;;;12.40;10.97;;;;;;;;;;5016604;28;20469;-52
2022/05/02 14:26:28;;;;;;;8.30;7.60;;;;;;;;;;5029470;28;20466;-52
2022/05/02 14:29:03;;;;;;;7.53;5.00;;;;;;;;;;5014348;28;20461;-51
2022/05/02 14:31:39;;;;;;;6.30;5.10;;;;;;;;;;5021722;28;20808;-53
2022/05/02 14:34:13;;;;;;;6.37;5.63;;;;;;;;;;4996950;28;20442;-52
2022/05/02 14:36:43;;;;;;;5.00;4.50;;;;;;;;;;5024911;28;21167;-52
2022/05/02 14:39:11;;;;;;;5.67;5.13;;;;;;;;;;4983361;28;20458;-51
2022/05/02 14:41:38;;;;;;;6.80;5.03;;;;;;;;;;5022455;28;20521;-51
2022/05/02 14:44:07;;;;;;;5.73;5.10;;;;;;;;;;5023469;28;20442;-51
2022/05/02 14:46:33;;;;;;;5.10;4.60;;;;;;;;;;5035099;28;20478;-53
2022/05/02 14:48:59;;;;;;;4.80;4.40;;;;;;;;;;5025002;28;20456;-53
2022/05/02 14:51:25;;;;;;;5.20;4.70;;;;;;;;;;5036074;28;20442;-54
2022/05/02 14:53:52;;;;;;;4.67;4.27;;;;;;;;;;5032074;28;20437;-54
2022/05/02 14:56:18;;;;;;;5.80;5.17;;;;;;;;;;5032073;28;20464;-54
2022/05/02 15:01:49;;;;;;;6.40;5.80;;;;;;;;;;5005142;28;20519;-51
2022/05/02 15:04:15;;;;;;;6.47;5.13;;;;;;;;;;5034274;28;20524;-51
2022/05/02 15:06:42;;;;;;;6.60;5.90;;;;;;;;;;5014805;28;20499;-54
2022/05/02 15:11:59;;;;;;;6.63;6.03;;;;;;;;;;4988886;28;20437;-53
2022/05/02 15:14:37;;;;;;;5.47;4.97;;;;;;;;;;5038444;28;20438;-53
2022/05/02 15:17:24;;;;;;;6.10;5.20;;;;;;;;;;5010935;28;20946;-54
2022/05/02 15:20:00;;;;;;;6.37;5.60;;;;;;;;;;5045013;28;20812;-55
2022/05/02 15:22:32;;;;;;;5.93;5.33;;;;;;;;;;5009572;28;20446;-53
2022/05/02 15:38:58;;;;;;;4.23;3.83;;;;;;;;;;5007717;28;20993;-51
2022/05/02 15:41:46;;;;;;;6.80;4.93;;;;;;;;;;5038143;28;20463;-50
2022/05/02 15:44:35;;;;;;;6.00;5.50;;;;;;;;;;5011163;28;20437;-53
2022/05/02 15:47:12;;;;;;;4.90;4.50;;;;;;;;;;5004823;28;20446;-52
2022/05/02 15:49:40;;;;;;;5.73;5.00;;;;;;;;;;5032513;28;20433;-53
2022/05/02 15:52:16;;;;;;;5.67;5.17;;;;;;;;;;5027189;28;20444;-54
2022/05/02 15:54:47;;;;;;;12.00;4.40;;;;;;;;;;5034514;28;20430;-53
2022/05/02 15:57:19;;;;;;;6.30;4.43;;;;;;;;;;5009399;28;20465;-53
2022/05/02 15:59:47;;;;;;;5.00;4.50;;;;;;;;;;5018005;28;20438;-53
2022/05/02 16:02:14;;;;;;;5.40;4.60;;;;;;;;;;5026367;28;20453;-54
2022/05/02 16:04:50;;;;;;;5.27;4.80;;;;;;;;;;5018175;28;20470;-54
2022/05/02 16:12:54;;;;;;;5.70;5.10;;;;;;;;;;5036223;28;20488;-54
2022/05/02 16:15:22;;;;;;;6.17;5.60;;;;;;;;;;5002287;28;21060;-53
2022/05/02 16:17:50;;;;;;;5.50;5.00;;;;;;;;;;5033826;28;20419;-54
2022/05/02 16:20:17;;;;;;;5.77;5.27;;;;;;;;;;5012274;28;20426;-53
2022/05/02 16:22:47;;;;;;;6.40;5.87;;;;;;;;;;5051143;28;20600;-55
2022/05/02 16:25:18;;;;;;;5.80;5.20;;;;;;;;;;5018392;28;20502;-55
2022/05/02 16:27:51;;;;;;;6.30;5.40;;;;;;;;;;5035522;28;20458;-56